createdAt,value
2023-03-31T00:00:39.761Z,26.34
2023-03-31T00:01:39.766Z,26.45
2023-03-31T00:02:39.841Z,25.74
2023-03-31T00:03:39.807Z,25.41
2023-03-31T00:04:39.799Z,25.43
2023-03-31T00:05:39.785Z,26.85
2023-03-31T00:06:39.766Z,25.99
2023-03-31T00:07:39.789Z,27.29
2023-03-31T00:08:39.855Z,27.54
2023-03-31T00:09:39.762Z,25.42
2023-03-31T00:10:39.752Z,27.99
2023-03-31T00:11:39.774Z,26.23
2023-03-31T00:12:39.719Z,26.09
2023-03-31T00:13:39.713Z,26.22
2023-03-31T00:14:39.742Z,29.03
2023-03-31T00:15:39.732Z,27.20
2023-03-31T00:16:39.804Z,26.71
2023-03-31T00:17:39.774Z,27.66
2023-03-31T00:18:39.741Z,27.79
2023-03-31T00:19:39.696Z,27.16
2023-03-31T00:20:39.734Z,26.85
2023-03-31T00:21:39.708Z,25.39
2023-03-31T00:22:39.733Z,27.98
2023-03-31T00:23:39.688Z,25.91
2023-03-31T00:24:39.692Z,26.78
2023-03-31T00:25:39.696Z,27.13
2023-03-31T00:26:39.689Z,27.21
2023-03-31T00:27:39.672Z,25.16
2023-03-31T00:28:39.687Z,25.93
2023-03-31T00:29:39.655Z,25.89
2023-03-31T00:30:39.657Z,27.93
2023-03-31T00:31:39.686Z,27.74
2023-03-31T00:32:39.650Z,26.33
2023-03-31T00:33:39.667Z,28.36
2023-03-31T00:34:39.640Z,25.10
2023-03-31T00:35:39.672Z,26.22
2023-03-31T00:36:39.644Z,25.00
2023-03-31T00:37:39.615Z,27.15
2023-03-31T00:38:39.640Z,26.82
2023-03-31T00:39:39.621Z,26.78
2023-03-31T00:40:39.630Z,26.00
2023-03-31T00:41:39.708Z,25.73
2023-03-31T00:42:39.746Z,26.50
2023-03-31T00:43:39.795Z,28.42
2023-03-31T00:44:39.786Z,27.36
2023-03-31T00:45:39.907Z,26.89
2023-03-31T00:46:39.892Z,25.69
2023-03-31T00:47:39.958Z,27.72
2023-03-31T00:48:40.015Z,25.00
2023-03-31T00:49:40.029Z,26.67
2023-03-31T00:50:40.111Z,28.74
2023-03-31T00:51:40.159Z,25.56
2023-03-31T00:52:40.192Z,25.12
2023-03-31T00:53:40.232Z,27.00
2023-03-31T00:54:40.238Z,26.17
2023-03-31T00:55:40.210Z,27.90
2023-03-31T00:56:40.215Z,27.54
2023-03-31T00:57:40.216Z,27.71
2023-03-31T00:58:40.236Z,29.33
2023-03-31T00:59:40.217Z,26.75
2023-03-31T01:00:40.209Z,25.43
2023-03-31T01:01:40.321Z,26.50
2023-03-31T01:02:40.214Z,27.79
2023-03-31T01:03:40.233Z,26.17
2023-03-31T01:04:40.225Z,27.88
2023-03-31T01:05:40.205Z,25.85
2023-03-31T01:06:40.217Z,26.36
2023-03-31T01:07:40.230Z,27.64
2023-03-31T01:08:40.230Z,30.12
2023-03-31T01:09:40.212Z,27.82
2023-03-31T01:10:40.206Z,25.00
2023-03-31T01:11:40.214Z,29.16
2023-03-31T01:12:40.215Z,26.50
2023-03-31T01:13:40.241Z,26.01
2023-03-31T01:14:40.213Z,25.75
2023-03-31T01:15:40.224Z,26.37
2023-03-31T01:16:40.285Z,25.98
2023-03-31T01:17:40.250Z,26.61
2023-03-31T01:18:40.284Z,26.44
2023-03-31T01:19:40.232Z,25.77
2023-03-31T01:20:40.203Z,29.04
2023-03-31T01:21:40.205Z,25.00
2023-03-31T01:22:40.215Z,25.00
2023-03-31T01:23:40.200Z,25.59
2023-03-31T01:24:40.251Z,27.68
2023-03-31T01:25:40.221Z,26.33
2023-03-31T01:26:40.194Z,27.85
2023-03-31T01:27:40.206Z,29.06
2023-03-31T01:28:40.196Z,27.95
2023-03-31T01:29:40.233Z,27.49
2023-03-31T01:30:40.201Z,29.34
2023-03-31T01:31:40.372Z,27.51
2023-03-31T01:32:40.272Z,27.21
2023-03-31T01:33:40.241Z,25.48
2023-03-31T01:34:40.205Z,28.11
2023-03-31T01:35:40.256Z,27.86
2023-03-31T01:36:40.241Z,26.35
2023-03-31T01:37:40.204Z,25.65
2023-03-31T01:38:40.227Z,29.46
2023-03-31T01:39:40.236Z,28.83
2023-03-31T01:40:40.257Z,27.63
2023-03-31T01:41:40.218Z,25.76
2023-03-31T01:42:40.274Z,25.00
2023-03-31T01:43:40.262Z,26.13
2023-03-31T01:44:40.268Z,28.28
2023-03-31T01:45:40.274Z,25.59
2023-03-31T01:46:40.322Z,26.24
2023-03-31T01:47:40.467Z,25.57
2023-03-31T01:48:40.299Z,26.98
2023-03-31T01:49:40.301Z,26.76
2023-03-31T01:50:40.285Z,25.86
2023-03-31T01:51:40.309Z,25.96
2023-03-31T01:52:40.353Z,25.40
2023-03-31T01:53:40.398Z,26.97
2023-03-31T01:54:40.437Z,27.43
2023-03-31T01:55:40.476Z,27.27
2023-03-31T01:56:40.517Z,26.51
2023-03-31T01:57:40.560Z,27.53
2023-03-31T01:58:40.608Z,26.17
2023-03-31T01:59:40.671Z,28.85
2023-03-31T02:00:40.696Z,30.94
2023-03-31T02:01:40.750Z,28.95
2023-03-31T02:02:40.850Z,29.28
2023-03-31T02:03:40.890Z,26.73
2023-03-31T02:04:40.810Z,28.96
2023-03-31T02:05:40.794Z,26.42
2023-03-31T02:06:40.803Z,25.00
2023-03-31T02:07:40.828Z,29.35
2023-03-31T02:08:40.804Z,27.29
2023-03-31T02:09:40.819Z,25.00
2023-03-31T02:10:40.806Z,26.72
2023-03-31T02:11:40.816Z,30.78
2023-03-31T02:12:40.801Z,27.58
2023-03-31T02:13:40.804Z,27.21
2023-03-31T02:14:40.784Z,25.01
2023-03-31T02:15:40.794Z,26.97
2023-03-31T02:16:40.811Z,28.22
2023-03-31T02:17:40.828Z,25.69
2023-03-31T02:18:40.794Z,25.84
2023-03-31T02:19:40.773Z,27.00
2023-03-31T02:20:40.763Z,26.21
2023-03-31T02:21:40.775Z,27.40
2023-03-31T02:22:40.784Z,26.86
2023-03-31T02:23:40.769Z,26.20
2023-03-31T02:24:40.779Z,27.00
2023-03-31T02:25:40.779Z,25.52
2023-03-31T02:26:40.771Z,25.00
2023-03-31T02:27:40.750Z,26.20
2023-03-31T02:28:40.852Z,27.52
2023-03-31T02:29:40.783Z,25.00
2023-03-31T02:30:40.789Z,26.89
2023-03-31T02:31:40.831Z,28.19
2023-03-31T02:32:40.894Z,26.08
2023-03-31T02:33:40.793Z,25.65
2023-03-31T02:34:40.844Z,25.14
2023-03-31T02:35:40.887Z,27.13
2023-03-31T02:36:40.917Z,28.38
2023-03-31T02:37:40.994Z,27.30
2023-03-31T02:38:41.051Z,25.98
2023-03-31T02:39:41.097Z,25.50
2023-03-31T02:40:41.133Z,27.60
2023-03-31T02:41:41.147Z,28.61
2023-03-31T02:42:41.200Z,25.60
2023-03-31T02:43:41.307Z,25.72
2023-03-31T02:44:41.300Z,25.64
2023-03-31T02:45:41.392Z,25.13
2023-03-31T02:46:41.392Z,27.82
2023-03-31T02:47:41.501Z,27.10
2023-03-31T02:48:41.499Z,27.11
2023-03-31T02:49:41.519Z,25.00
2023-03-31T02:50:41.584Z,27.02
2023-03-31T02:51:41.653Z,26.94
2023-03-31T02:52:41.680Z,27.88
2023-03-31T02:53:41.643Z,26.94
2023-03-31T02:54:41.642Z,25.32
2023-03-31T02:55:41.658Z,25.45
2023-03-31T02:56:41.837Z,29.53
2023-03-31T02:57:41.679Z,25.83
2023-03-31T02:58:41.692Z,25.35
2023-03-31T02:59:41.707Z,28.60
2023-03-31T03:00:41.727Z,25.98
2023-03-31T03:01:41.739Z,26.12
2023-03-31T03:02:41.801Z,27.44
2023-03-31T03:03:41.719Z,28.47
2023-03-31T03:04:41.706Z,25.89
2023-03-31T03:05:41.730Z,26.82
2023-03-31T03:06:41.744Z,25.78
2023-03-31T03:07:41.760Z,27.25
2023-03-31T03:08:41.777Z,26.46
2023-03-31T03:09:41.787Z,27.33
2023-03-31T03:10:41.809Z,26.47
2023-03-31T03:11:41.772Z,27.02
2023-03-31T03:12:41.803Z,27.23
2023-03-31T03:13:41.803Z,29.75
2023-03-31T03:14:41.813Z,28.43
2023-03-31T03:15:41.820Z,28.58
2023-03-31T03:16:41.844Z,28.39
2023-03-31T03:17:41.836Z,27.20
2023-03-31T03:18:41.822Z,26.20
2023-03-31T03:19:41.814Z,27.89
2023-03-31T03:20:41.853Z,28.05
2023-03-31T03:21:41.859Z,25.65
2023-03-31T03:22:41.840Z,25.15
2023-03-31T03:23:41.863Z,27.86
2023-03-31T03:24:41.848Z,27.02
2023-03-31T03:25:41.847Z,26.24
2023-03-31T03:26:41.853Z,25.36
2023-03-31T03:27:41.859Z,27.77
2023-03-31T03:28:41.861Z,28.58
2023-03-31T03:29:41.876Z,27.49
2023-03-31T03:30:41.977Z,26.77
2023-03-31T03:31:41.900Z,26.32
2023-03-31T03:32:41.909Z,26.45
2023-03-31T03:33:41.911Z,28.79
2023-03-31T03:34:41.913Z,25.83
2023-03-31T03:35:42.019Z,28.35
2023-03-31T03:36:41.932Z,28.73
2023-03-31T03:37:41.926Z,26.22
2023-03-31T03:38:41.957Z,27.98
2023-03-31T03:39:41.945Z,26.78
2023-03-31T03:40:41.957Z,26.29
2023-03-31T03:41:41.969Z,27.00
2023-03-31T03:42:41.979Z,27.50
2023-03-31T03:43:41.964Z,25.89
2023-03-31T03:44:41.952Z,25.90
2023-03-31T03:45:41.979Z,28.03
2023-03-31T03:46:42.041Z,25.62
2023-03-31T03:47:42.079Z,26.04
2023-03-31T03:48:42.128Z,26.80
2023-03-31T03:49:42.150Z,27.30
2023-03-31T03:50:42.205Z,28.30
2023-03-31T03:51:42.229Z,27.56
2023-03-31T03:52:42.306Z,25.00
2023-03-31T03:53:42.362Z,26.31
2023-03-31T03:54:42.357Z,27.16
2023-03-31T03:55:42.364Z,26.14
2023-03-31T03:56:42.391Z,26.95
2023-03-31T03:57:42.360Z,27.30
2023-03-31T03:58:42.355Z,29.30
2023-03-31T03:59:42.368Z,29.87
2023-03-31T04:00:42.399Z,29.17
2023-03-31T04:01:42.391Z,29.29
2023-03-31T04:02:42.450Z,27.07
2023-03-31T04:03:42.380Z,25.38
2023-03-31T04:04:42.445Z,27.01
2023-03-31T04:05:42.402Z,26.47
2023-03-31T04:06:42.501Z,27.24
2023-03-31T04:07:42.415Z,26.19
2023-03-31T04:08:42.511Z,27.86
2023-03-31T04:09:42.497Z,29.39
2023-03-31T04:10:42.566Z,27.17
2023-03-31T04:11:42.608Z,25.70
2023-03-31T04:12:43.387Z,25.00
2023-03-31T04:13:42.676Z,25.94
2023-03-31T04:14:42.682Z,28.57
2023-03-31T04:15:42.700Z,26.32
2023-03-31T04:16:42.856Z,28.62
2023-03-31T04:17:42.797Z,26.68
2023-03-31T04:18:42.913Z,26.88
2023-03-31T04:19:42.883Z,27.56
2023-03-31T04:20:42.936Z,27.31
2023-03-31T04:21:42.969Z,26.21
2023-03-31T04:22:42.996Z,27.08
2023-03-31T04:23:43.023Z,26.20
2023-03-31T04:24:43.009Z,25.67
2023-03-31T04:25:43.039Z,25.97
2023-03-31T04:26:43.478Z,26.73
2023-03-31T04:27:43.045Z,27.81
2023-03-31T04:28:43.050Z,25.77
2023-03-31T04:29:43.055Z,27.62
2023-03-31T04:30:43.077Z,26.21
2023-03-31T04:31:43.387Z,27.29
2023-03-31T04:32:43.158Z,29.69
2023-03-31T04:33:43.115Z,29.16
2023-03-31T04:34:43.108Z,28.23
2023-03-31T04:35:43.166Z,28.70
2023-03-31T04:36:43.148Z,27.11
2023-03-31T04:37:43.153Z,27.50
2023-03-31T04:38:43.208Z,27.23
2023-03-31T04:39:43.267Z,28.15
2023-03-31T04:40:43.320Z,26.50
2023-03-31T04:41:43.357Z,25.62
2023-03-31T04:42:43.401Z,28.21
2023-03-31T04:43:43.451Z,28.27
2023-03-31T04:44:43.448Z,28.06
2023-03-31T04:45:43.481Z,25.80
2023-03-31T04:46:43.495Z,28.51
2023-03-31T04:47:43.602Z,26.56
2023-03-31T04:48:43.590Z,29.17
2023-03-31T04:49:43.594Z,29.01
2023-03-31T04:50:43.688Z,29.43
2023-03-31T04:51:43.721Z,27.94
2023-03-31T04:52:43.752Z,29.06
2023-03-31T04:53:43.828Z,28.58
2023-03-31T04:54:43.847Z,26.92
2023-03-31T04:55:43.887Z,26.50
2023-03-31T04:56:44.057Z,29.43
2023-03-31T04:57:44.025Z,25.14
2023-03-31T04:58:44.419Z,27.93
2023-03-31T04:59:44.065Z,29.69
2023-03-31T05:00:51.112Z,26.60
2023-03-31T05:01:44.101Z,27.11
2023-03-31T05:02:44.320Z,27.48
2023-03-31T05:03:44.109Z,27.27
2023-03-31T05:04:44.069Z,28.19
2023-03-31T05:05:44.119Z,29.11
2023-03-31T05:06:44.049Z,27.41
2023-03-31T05:07:44.041Z,29.82
2023-03-31T05:08:44.069Z,28.74
2023-03-31T05:09:44.029Z,26.68
2023-03-31T05:10:44.019Z,28.12
2023-03-31T05:11:44.020Z,28.91
2023-03-31T05:12:44.034Z,27.01
2023-03-31T05:13:44.047Z,27.51
2023-03-31T05:14:44.004Z,28.00
2023-03-31T05:15:43.997Z,26.83
2023-03-31T05:16:44.079Z,29.40
2023-03-31T05:17:44.027Z,27.24
2023-03-31T05:18:43.979Z,28.65
2023-03-31T05:19:43.950Z,27.08
2023-03-31T05:20:43.965Z,25.44
2023-03-31T05:21:43.958Z,26.97
2023-03-31T05:22:44.260Z,25.45
2023-03-31T05:23:43.936Z,29.24
2023-03-31T05:24:43.919Z,28.03
2023-03-31T05:25:43.913Z,27.40
2023-03-31T05:26:43.929Z,28.85
2023-03-31T05:27:43.890Z,28.47
2023-03-31T05:28:43.947Z,30.07
2023-03-31T05:29:43.927Z,25.33
2023-03-31T05:30:43.899Z,25.54
2023-03-31T05:31:43.919Z,30.02
2023-03-31T05:32:43.906Z,30.66
2023-03-31T05:33:43.884Z,46.27
2023-03-31T05:34:43.978Z,61.20
2023-03-31T05:35:43.989Z,64.72
2023-03-31T05:36:43.858Z,60.41
2023-03-31T05:37:43.823Z,59.17
2023-03-31T05:38:43.837Z,63.00
2023-03-31T05:39:43.992Z,59.56
2023-03-31T05:40:43.809Z,58.01
2023-03-31T05:41:43.788Z,58.42
2023-03-31T05:42:43.788Z,61.05
2023-03-31T05:43:43.797Z,64.63
2023-03-31T05:44:43.773Z,66.06
2023-03-31T05:47:02.791Z,25.00
2023-03-31T05:48:02.680Z,25.00
2023-03-31T05:49:02.618Z,25.00
2023-03-31T05:50:02.611Z,25.00
2023-03-31T05:51:02.537Z,25.00
2023-03-31T05:52:02.543Z,40.35
2023-03-31T05:53:02.579Z,68.03
2023-03-31T05:54:02.782Z,52.49
2023-03-31T05:55:02.559Z,39.63
2023-03-31T05:56:02.557Z,39.80
2023-03-31T05:57:02.704Z,48.57
2023-03-31T05:58:02.525Z,39.54
2023-03-31T05:59:02.508Z,34.76
2023-03-31T06:00:02.533Z,45.30
2023-03-31T06:01:02.569Z,55.64
2023-03-31T06:02:02.532Z,56.45
2023-03-31T06:03:02.729Z,61.94
2023-03-31T06:04:02.551Z,60.53
2023-03-31T06:05:02.502Z,65.79
2023-03-31T06:06:02.443Z,60.93
2023-03-31T06:07:02.457Z,58.00
2023-03-31T06:08:02.556Z,54.50
2023-03-31T06:09:02.435Z,70.61
2023-03-31T06:10:02.794Z,88.47
2023-03-31T06:11:02.413Z,90.37
2023-03-31T06:12:02.489Z,92.84
2023-03-31T06:13:02.454Z,106.84
2023-03-31T06:14:02.403Z,98.65
2023-03-31T06:15:02.411Z,84.00
2023-03-31T06:16:02.440Z,88.27
2023-03-31T06:17:02.386Z,96.32
2023-03-31T06:18:02.444Z,98.18
2023-03-31T06:19:02.371Z,114.82
2023-03-31T06:20:07.767Z,121.30
2023-03-31T06:21:03.429Z,121.47
2023-03-31T06:22:02.370Z,116.28
2023-03-31T06:23:02.321Z,118.08
2023-03-31T06:24:02.323Z,110.46
2023-03-31T06:25:02.348Z,122.79
2023-03-31T06:26:02.343Z,116.10
2023-03-31T06:27:02.309Z,111.90
2023-03-31T06:28:02.302Z,119.38
2023-03-31T06:29:02.308Z,122.76
2023-03-31T06:30:02.304Z,121.30
2023-03-31T06:31:02.306Z,113.10
2023-03-31T06:32:02.376Z,130.40
2023-03-31T06:33:02.330Z,147.93
2023-03-31T06:34:02.287Z,157.54
2023-03-31T06:35:02.236Z,173.92
2023-03-31T06:36:02.275Z,177.16
2023-03-31T06:37:02.253Z,181.38
2023-03-31T06:38:02.322Z,177.85
2023-03-31T06:39:02.363Z,184.88
2023-03-31T06:40:02.438Z,166.94
2023-03-31T06:41:02.500Z,171.62
2023-03-31T06:42:02.540Z,164.55
2023-03-31T06:43:02.603Z,172.99
2023-03-31T06:44:02.688Z,162.71
2023-03-31T06:45:02.718Z,178.64
2023-03-31T06:46:02.770Z,204.46
2023-03-31T06:47:02.826Z,208.04
2023-03-31T06:48:02.912Z,214.40
2023-03-31T06:49:02.924Z,217.81
2023-03-31T06:50:03.023Z,215.99
2023-03-31T06:51:03.041Z,222.35
2023-03-31T06:52:03.080Z,220.81
2023-03-31T06:53:03.149Z,217.04
2023-03-31T06:54:03.170Z,225.50
2023-03-31T06:55:03.288Z,233.13
2023-03-31T06:56:03.379Z,237.54
2023-03-31T06:57:03.362Z,243.54
2023-03-31T06:58:03.383Z,246.05
2023-03-31T06:59:03.456Z,250.00
2023-03-31T07:00:03.539Z,249.70
2023-03-31T07:01:03.711Z,250.00
2023-03-31T07:02:03.742Z,249.72
2023-03-31T07:03:03.833Z,249.16
2023-03-31T07:04:03.740Z,250.00
2023-03-31T07:05:03.854Z,250.00
2023-03-31T07:06:03.842Z,250.00
2023-03-31T07:07:03.901Z,248.26
2023-03-31T07:08:03.976Z,250.00
2023-03-31T07:09:04.008Z,249.01
2023-03-31T07:10:04.047Z,229.64
2023-03-31T07:11:04.246Z,221.69
2023-03-31T07:12:04.145Z,217.90
2023-03-31T07:13:05.718Z,228.33
2023-03-31T07:14:04.268Z,236.28
2023-03-31T07:15:04.361Z,241.28
2023-03-31T07:16:04.546Z,242.39
2023-03-31T07:17:04.492Z,242.45
2023-03-31T07:18:04.537Z,234.25
2023-03-31T07:19:04.604Z,236.77
2023-03-31T07:20:04.661Z,238.66
2023-03-31T07:21:07.280Z,238.79
2023-03-31T07:22:04.624Z,239.30
2023-03-31T07:23:04.634Z,241.41
2023-03-31T07:24:04.636Z,244.39
2023-03-31T07:25:04.855Z,250.03
2023-03-31T07:26:04.613Z,256.93
2023-03-31T07:27:06.299Z,245.86
2023-03-31T07:28:04.655Z,248.63
2023-03-31T07:29:04.579Z,249.49
2023-03-31T07:30:04.596Z,249.69
2023-03-31T07:31:04.841Z,250.00
2023-03-31T07:32:04.611Z,249.59
2023-03-31T07:33:04.615Z,248.97
2023-03-31T07:34:04.578Z,249.77
2023-03-31T07:35:04.819Z,248.41
2023-03-31T07:36:12.761Z,248.18
2023-03-31T07:37:05.552Z,248.50
2023-03-31T07:38:04.515Z,231.59
2023-03-31T07:39:04.524Z,225.12
2023-03-31T07:40:04.541Z,214.21
2023-03-31T07:41:09.128Z,204.55
2023-03-31T07:42:05.525Z,209.97
2023-03-31T07:43:04.495Z,205.10
2023-03-31T07:44:04.470Z,201.18
2023-03-31T07:45:04.478Z,195.36
2023-03-31T07:46:04.800Z,192.92
2023-03-31T07:47:04.462Z,194.01
2023-03-31T07:48:04.582Z,189.85
2023-03-31T07:49:04.447Z,194.36
2023-03-31T07:50:04.455Z,195.76
2023-03-31T07:51:04.654Z,198.78
2023-03-31T07:52:04.513Z,199.99
2023-03-31T07:53:04.577Z,200.77
2023-03-31T07:54:04.610Z,187.47
2023-03-31T07:55:04.690Z,180.25
2023-03-31T07:56:05.044Z,171.95
2023-03-31T07:57:04.819Z,173.04
2023-03-31T07:58:04.848Z,180.97
2023-03-31T07:59:04.889Z,188.70
2023-03-31T08:00:04.937Z,187.33
2023-03-31T08:01:05.423Z,176.22
2023-03-31T08:02:05.096Z,167.92
2023-03-31T08:03:05.142Z,170.50
2023-03-31T08:04:05.176Z,169.05
2023-03-31T08:05:05.162Z,165.21
2023-03-31T08:06:05.629Z,171.06
2023-03-31T08:07:05.237Z,173.41
2023-03-31T08:08:05.416Z,175.89
2023-03-31T08:09:05.349Z,175.82
2023-03-31T08:10:05.399Z,169.56
2023-03-31T08:11:05.683Z,175.15
2023-03-31T08:12:05.490Z,172.76
2023-03-31T08:13:05.568Z,175.80
2023-03-31T08:14:05.561Z,171.91
2023-03-31T08:15:05.621Z,174.44
2023-03-31T08:16:05.957Z,179.71
2023-03-31T08:17:05.689Z,179.62
2023-03-31T08:18:05.727Z,179.28
2023-03-31T08:19:05.804Z,180.51
2023-03-31T08:20:08.017Z,186.16
2023-03-31T08:21:06.093Z,186.55
2023-03-31T08:22:05.873Z,188.69
2023-03-31T08:23:05.876Z,192.65
2023-03-31T08:24:05.883Z,194.35
2023-03-31T08:25:05.866Z,192.61
2023-03-31T08:26:05.973Z,194.27
2023-03-31T08:27:11.906Z,196.12
2023-03-31T08:28:06.884Z,196.33
2023-03-31T08:29:05.858Z,194.27
2023-03-31T08:30:05.861Z,194.57
2023-03-31T08:31:05.872Z,190.61
2023-03-31T08:32:06.012Z,181.79
2023-03-31T08:33:05.947Z,187.86
2023-03-31T08:34:05.829Z,195.50
2023-03-31T08:35:05.853Z,186.90
2023-03-31T08:36:06.163Z,187.12
2023-03-31T08:37:06.099Z,169.01
2023-03-31T08:38:05.825Z,175.00
2023-03-31T08:39:05.755Z,164.76
2023-03-31T08:40:05.834Z,167.84
2023-03-31T08:41:05.777Z,152.78
2023-03-31T08:42:06.970Z,152.31
2023-03-31T08:43:05.835Z,153.18
2023-03-31T08:44:05.917Z,151.33
2023-03-31T08:45:05.957Z,152.22
2023-03-31T08:46:06.336Z,159.11
2023-03-31T08:47:06.045Z,161.98
2023-03-31T08:48:07.566Z,159.05
2023-03-31T08:49:06.144Z,145.20
2023-03-31T08:50:06.160Z,141.52
2023-03-31T08:51:06.539Z,142.90
2023-03-31T08:52:06.278Z,147.72
2023-03-31T08:53:06.309Z,149.95
2023-03-31T08:54:06.386Z,155.42
2023-03-31T08:55:06.441Z,148.67
2023-03-31T08:56:06.579Z,135.14
2023-03-31T08:57:06.534Z,128.32
2023-03-31T08:58:06.599Z,127.83
2023-03-31T08:59:06.612Z,125.05
2023-03-31T09:00:06.693Z,113.49
2023-03-31T09:01:07.011Z,108.70
2023-03-31T09:02:06.937Z,105.01
2023-03-31T09:03:07.509Z,104.42
2023-03-31T09:04:08.252Z,104.48
2023-03-31T09:05:06.934Z,105.13
2023-03-31T09:06:06.925Z,101.24
2023-03-31T09:07:06.936Z,87.92
2023-03-31T09:08:06.879Z,84.14
2023-03-31T09:09:06.870Z,77.21
2023-03-31T09:10:06.890Z,71.38
2023-03-31T09:11:07.374Z,72.44
2023-03-31T09:12:06.926Z,67.07
2023-03-31T09:13:06.903Z,61.58
2023-03-31T09:14:06.849Z,65.85
2023-03-31T09:15:06.819Z,66.69
2023-03-31T09:16:07.077Z,66.76
2023-03-31T09:17:06.915Z,62.13
2023-03-31T09:18:06.869Z,62.25
2023-03-31T09:19:06.807Z,65.06
2023-03-31T09:20:06.815Z,69.46
2023-03-31T09:21:06.941Z,75.69
2023-03-31T09:22:06.800Z,78.60
2023-03-31T09:23:06.763Z,52.66
2023-03-31T09:24:06.806Z,40.09
2023-03-31T09:25:06.758Z,29.27
2023-03-31T09:26:07.058Z,25.66
2023-03-31T09:27:06.773Z,33.75
2023-03-31T09:28:06.742Z,31.52
2023-03-31T09:29:06.738Z,25.85
2023-03-31T09:30:06.735Z,25.47
2023-03-31T09:31:06.938Z,28.62
2023-03-31T09:32:06.734Z,40.09
2023-03-31T09:33:06.771Z,49.72
2023-03-31T09:34:06.698Z,54.25
2023-03-31T09:35:06.719Z,50.94
2023-03-31T09:36:06.896Z,52.79
2023-03-31T09:37:06.677Z,52.35
2023-03-31T09:38:06.647Z,55.05
2023-03-31T09:39:06.660Z,61.99
2023-03-31T09:40:06.650Z,66.60
2023-03-31T09:41:06.668Z,69.26
2023-03-31T09:42:06.880Z,65.35
2023-03-31T09:43:06.664Z,83.00
2023-03-31T09:44:06.612Z,104.89
2023-03-31T09:45:06.632Z,135.15
2023-03-31T09:46:09.955Z,158.06
2023-03-31T09:47:08.940Z,171.93
2023-03-31T09:48:06.709Z,172.46
2023-03-31T09:49:06.716Z,174.05
2023-03-31T09:50:06.650Z,176.91
2023-03-31T09:51:06.645Z,181.51
2023-03-31T09:52:06.644Z,190.53
2023-03-31T09:53:06.625Z,193.90
2023-03-31T09:54:06.630Z,194.44
2023-03-31T09:55:06.614Z,198.37
2023-03-31T09:56:06.686Z,198.59
2023-03-31T09:57:06.594Z,200.96
2023-03-31T09:58:06.573Z,201.98
2023-03-31T09:59:06.552Z,201.60
2023-03-31T10:00:06.596Z,202.21
2023-03-31T10:01:06.901Z,205.61
2023-03-31T10:02:06.669Z,202.93
2023-03-31T10:03:06.541Z,202.85
2023-03-31T10:04:06.672Z,201.57
2023-03-31T10:05:06.545Z,201.79
2023-03-31T10:06:06.517Z,201.97
2023-03-31T10:07:06.542Z,206.74
2023-03-31T10:08:06.526Z,207.04
2023-03-31T10:09:06.511Z,209.84
2023-03-31T10:10:06.543Z,207.43
2023-03-31T10:11:06.694Z,208.68
2023-03-31T10:12:06.469Z,207.38
2023-03-31T10:13:06.457Z,211.04
2023-03-31T10:14:06.460Z,208.92
2023-03-31T10:15:06.443Z,205.19
2023-03-31T10:16:06.581Z,204.21
2023-03-31T10:17:06.907Z,204.49
2023-03-31T10:18:06.591Z,198.13
2023-03-31T10:19:06.623Z,199.36
2023-03-31T10:20:06.676Z,200.56
2023-03-31T10:21:06.940Z,204.36
2023-03-31T10:22:06.667Z,205.49
2023-03-31T10:23:06.690Z,203.83
2023-03-31T10:24:06.698Z,200.93
2023-03-31T10:25:06.804Z,200.11
2023-03-31T10:26:06.791Z,198.85
2023-03-31T10:27:06.895Z,197.94
2023-03-31T10:28:06.831Z,201.94
2023-03-31T10:29:06.908Z,203.20
2023-03-31T10:30:06.930Z,201.29
2023-03-31T10:31:07.192Z,201.24
2023-03-31T10:32:07.400Z,200.20
2023-03-31T10:33:18.972Z,196.86
2023-03-31T10:34:07.991Z,197.12
2023-03-31T10:35:07.001Z,197.28
2023-03-31T10:36:07.064Z,194.58
2023-03-31T10:37:07.389Z,195.76
2023-03-31T10:38:06.971Z,197.67
2023-03-31T10:39:06.985Z,197.36
2023-03-31T10:40:06.967Z,197.50
2023-03-31T10:41:07.111Z,193.57
2023-03-31T10:42:07.426Z,190.82
2023-03-31T10:43:06.944Z,188.33
2023-03-31T10:44:06.946Z,191.69
2023-03-31T10:45:06.907Z,192.44
2023-03-31T10:46:06.884Z,188.27
2023-03-31T10:47:07.433Z,188.67
2023-03-31T10:48:07.342Z,186.17
2023-03-31T10:49:07.062Z,190.94
2023-03-31T10:50:07.068Z,192.71
2023-03-31T10:51:07.186Z,189.10
2023-03-31T10:52:07.437Z,185.06
2023-03-31T10:53:07.169Z,185.81
2023-03-31T10:54:07.175Z,185.37
2023-03-31T10:55:07.441Z,182.16
2023-03-31T10:56:07.258Z,182.47
2023-03-31T10:57:07.340Z,180.86
2023-03-31T10:58:07.315Z,172.88
2023-03-31T10:59:07.386Z,177.78
2023-03-31T11:00:07.450Z,183.16
2023-03-31T11:01:07.582Z,182.31
2023-03-31T11:02:07.552Z,175.16
2023-03-31T11:03:07.651Z,176.04
2023-03-31T11:04:07.726Z,174.04
2023-03-31T11:05:07.571Z,175.28
2023-03-31T11:06:07.542Z,174.15
2023-03-31T11:07:07.532Z,177.55
2023-03-31T11:08:07.920Z,178.79
2023-03-31T11:09:07.596Z,175.04
2023-03-31T11:10:07.537Z,165.64
2023-03-31T11:11:07.818Z,170.11
2023-03-31T11:12:07.519Z,171.20
2023-03-31T11:13:07.515Z,177.28
2023-03-31T11:14:07.519Z,162.80
2023-03-31T11:15:07.560Z,157.26
2023-03-31T11:16:07.613Z,153.79
2023-03-31T11:17:07.576Z,158.69
2023-03-31T11:18:07.615Z,151.62
2023-03-31T11:19:07.550Z,152.12
2023-03-31T11:20:08.352Z,151.62
2023-03-31T11:21:07.774Z,151.11
2023-03-31T11:22:07.489Z,145.48
2023-03-31T11:23:07.488Z,151.09
2023-03-31T11:24:07.467Z,151.25
2023-03-31T11:25:07.498Z,152.50
2023-03-31T11:26:07.502Z,143.47
2023-03-31T11:27:07.493Z,148.11
2023-03-31T11:28:07.887Z,145.66
2023-03-31T11:29:07.582Z,145.57
2023-03-31T11:30:07.662Z,133.77
2023-03-31T11:31:08.283Z,143.30
2023-03-31T11:32:07.814Z,148.96
2023-03-31T11:33:08.133Z,146.18
2023-03-31T11:34:07.833Z,146.48
2023-03-31T11:35:07.905Z,140.77
2023-03-31T11:36:07.988Z,140.67
2023-03-31T11:37:07.916Z,140.97
2023-03-31T11:38:07.996Z,141.07
2023-03-31T11:39:08.073Z,133.83
2023-03-31T11:40:08.080Z,136.65
2023-03-31T11:41:08.449Z,128.70
2023-03-31T11:42:08.203Z,137.12
2023-03-31T11:43:08.250Z,129.73
2023-03-31T11:44:08.282Z,129.71
2023-03-31T11:45:08.249Z,132.18
2023-03-31T11:46:08.525Z,128.73
2023-03-31T11:47:08.267Z,132.58
2023-03-31T11:48:08.289Z,133.28
2023-03-31T11:49:08.289Z,133.61
2023-03-31T11:50:08.246Z,131.95
2023-03-31T11:51:08.260Z,122.60
2023-03-31T11:52:08.293Z,134.05
2023-03-31T11:53:08.259Z,133.30
2023-03-31T11:54:08.255Z,123.62
2023-03-31T11:55:08.247Z,128.44
2023-03-31T11:56:08.450Z,123.85
2023-03-31T11:57:08.299Z,131.87
2023-03-31T11:58:08.276Z,128.16
2023-03-31T11:59:08.313Z,125.36
2023-03-31T12:00:08.284Z,122.92
2023-03-31T12:01:08.277Z,126.19
2023-03-31T12:02:08.272Z,127.68
2023-03-31T12:03:08.402Z,130.93
2023-03-31T12:04:08.351Z,128.72
2023-03-31T12:05:08.308Z,130.83
2023-03-31T12:06:08.637Z,136.37
2023-03-31T12:07:08.326Z,135.31
2023-03-31T12:08:08.346Z,135.02
2023-03-31T12:09:08.352Z,122.14
2023-03-31T12:10:08.335Z,122.29
2023-03-31T12:11:08.367Z,122.92
2023-03-31T12:12:08.366Z,130.75
2023-03-31T12:13:08.366Z,116.14
2023-03-31T12:14:08.376Z,122.03
2023-03-31T12:15:08.415Z,127.22
2023-03-31T12:16:08.667Z,124.69
2023-03-31T12:17:08.419Z,124.18
2023-03-31T12:18:08.490Z,123.18
2023-03-31T12:19:08.556Z,124.91
2023-03-31T12:20:08.587Z,123.59
2023-03-31T12:21:08.640Z,122.63
2023-03-31T12:22:08.695Z,121.70
2023-03-31T12:23:08.772Z,117.62
2023-03-31T12:24:08.885Z,118.58
2023-03-31T12:25:08.892Z,117.37
2023-03-31T12:26:08.937Z,122.39
2023-03-31T12:27:08.982Z,123.78
2023-03-31T12:28:09.020Z,122.05
2023-03-31T12:29:09.081Z,119.95
2023-03-31T12:30:09.129Z,122.12
2023-03-31T12:31:09.210Z,120.18
2023-03-31T12:32:09.229Z,121.05
2023-03-31T12:33:09.355Z,119.81
2023-03-31T12:34:09.322Z,118.10
2023-03-31T12:35:09.479Z,124.11
2023-03-31T12:36:09.710Z,121.49
2023-03-31T12:37:09.540Z,119.03
2023-03-31T12:38:09.563Z,115.88
2023-03-31T12:39:09.602Z,117.69
2023-03-31T12:40:09.721Z,122.34
2023-03-31T12:41:09.749Z,119.35
2023-03-31T12:42:09.787Z,115.14
2023-03-31T12:43:09.812Z,117.46